Time;durP1;ratioP1;P1;durP2;ratioP2;P2;SDS_P1;SDS_P2;PMS_P1;PMS_P2;Temp;Humidity;BMP_temperature;BMP_pressure;BME280_temperature;BME280_humidity;BME280_pressure;Samples;Min_cycle;Max_cycle;Signal;HPM_P1;HPM_P2
2021/03/27 00:00:08;;;;;;;14.23;11.60;;;10.90;79.20;;;10.71;78.57;98087.09;5028463;28;20634;-73
2021/03/27 00:02:48;;;;;;;15.83;12.70;;;10.90;79.80;;;10.71;78.59;98075.84;5030067;28;20978;-73
2021/03/27 00:05:23;;;;;;;13.80;11.93;;;10.80;79.70;;;10.67;78.30;98061.34;5029961;28;20694;-72
2021/03/27 00:08:05;;;;;;;13.27;11.83;;;10.80;79.50;;;10.61;78.28;98072.19;5023791;28;20624;-72
2021/03/27 00:10:41;;;;;;;13.37;11.13;;;10.80;79.50;;;10.57;78.47;98057.69;5022678;28;20664;-72
2021/03/27 00:13:39;;;;;;;16.00;12.33;;;10.70;79.80;;;10.57;79.26;98073.34;5027970;28;20647;-72
2021/03/27 00:16:18;;;;;;;18.80;12.93;;;10.70;80.10;;;10.63;78.83;98080.75;5027227;28;20637;-72
2021/03/27 00:18:57;;;;;;;15.90;12.90;;;10.80;80.30;;;10.63;78.26;98084.19;5029162;28;20636;-72
2021/03/27 00:21:33;;;;;;;14.97;12.90;;;10.80;80.10;;;10.67;78.64;98085.63;5021132;28;21205;-72
2021/03/27 00:24:07;;;;;;;16.17;12.50;;;10.80;80.10;;;10.66;78.58;98089.22;5025172;28;20637;-72
2021/03/27 00:26:40;;;;;;;15.70;12.13;;;10.80;80.70;;;10.67;78.50;98095.25;5020163;28;20720;-72
2021/03/27 00:29:14;;;;;;;14.63;12.43;;;10.80;80.50;;;10.70;78.46;98095.03;5021494;28;20645;-72
2021/03/27 00:31:48;;;;;;;15.07;11.70;;;10.80;80.70;;;10.71;78.81;98097.53;5024025;28;21202;-72
2021/03/27 00:34:20;;;;;;;14.90;12.20;;;10.80;80.50;;;10.73;78.49;98097.44;5023937;28;21153;-72
2021/03/27 00:36:56;;;;;;;21.40;14.30;;;10.80;81.50;;;10.75;77.77;98103.38;5023716;28;21248;-72
2021/03/27 00:39:30;;;;;;;29.60;21.30;;;10.80;80.40;;;10.67;78.13;98100.47;5026174;28;20657;-72
2021/03/27 00:42:03;;;;;;;24.47;20.50;;;10.80;80.00;;;10.58;78.24;98096.69;5025413;28;20629;-72
2021/03/27 00:44:41;;;;;;;20.90;16.10;;;10.70;79.80;;;10.52;78.18;98081.47;5023143;28;20621;-72
2021/03/27 00:47:16;;;;;;;19.63;16.70;;;10.60;80.80;;;10.54;78.43;98052.69;5022907;28;21072;-72
2021/03/27 00:49:48;;;;;;;14.37;11.07;;;10.60;80.40;;;10.59;78.44;98050.63;5025193;28;20656;-72
2021/03/27 00:52:19;;;;;;;12.43;10.30;;;10.70;80.60;;;10.76;78.47;98069.34;5024648;28;20649;-72
2021/03/27 00:54:56;;;;;;;10.57;8.93;;;10.80;81.60;;;10.96;78.58;98066.19;5024917;28;21069;-72
2021/03/27 00:57:31;;;;;;;10.30;7.10;;;11.00;81.70;;;11.15;79.34;98070.00;5026757;28;20649;-72
2021/03/27 01:00:09;;;;;;;10.10;7.57;;;11.10;82.70;;;11.40;80.10;98062.09;5023210;28;20776;-72
2021/03/27 01:03:02;;;;;;;9.17;6.70;;;11.30;83.30;;;11.62;78.74;98068.31;5022674;28;20665;-72
2021/03/27 01:05:55;;;;;;;9.73;6.67;;;11.60;82.10;;;11.76;77.38;98068.97;5018113;28;21013;-72
2021/03/27 01:08:51;;;;;;;8.17;6.33;;;11.70;81.00;;;11.87;76.90;98063.75;5023947;28;20640;-72
2021/03/27 01:11:58;;;;;;;7.40;6.10;;;11.80;80.50;;;11.98;76.10;98062.97;5019018;28;20676;-72
2021/03/27 01:14:41;;;;;;;9.63;6.47;;;11.90;79.80;;;12.01;77.49;98061.00;5026100;28;20637;-72
2021/03/27 01:17:16;;;;;;;9.57;6.47;;;12.00;79.40;;;12.05;77.85;98059.78;5025639;28;20660;-72
2021/03/27 01:19:51;;;;;;;7.57;6.20;;;12.00;79.40;;;12.05;77.72;98057.19;5023842;28;20625;-72
2021/03/27 01:22:21;;;;;;;7.83;6.27;;;12.10;79.90;;;12.07;76.80;98051.84;5025952;28;23107;-72
2021/03/27 01:24:48;;;;;;;6.63;5.93;;;12.10;80.50;;;12.12;76.71;98045.31;5025209;28;20618;-72
2021/03/27 01:27:23;;;;;;;7.23;6.10;;;12.10;79.90;;;12.12;77.02;98042.72;5024452;28;21390;-72
2021/03/27 01:30:01;;;;;;;9.10;6.13;;;12.10;80.10;;;12.15;78.47;98052.09;5028991;28;20633;-72
2021/03/27 01:32:50;;;;;;;7.80;5.87;;;12.20;80.40;;;12.11;78.74;98053.28;5022373;28;20682;-72
2021/03/27 01:35:28;;;;;;;6.63;5.50;;;12.10;80.60;;;12.13;76.60;98054.81;5023851;28;21212;-72
2021/03/27 01:38:03;;;;;;;7.67;5.70;;;12.20;80.70;;;12.16;78.77;98059.00;5053852;28;20696;-72
2021/03/27 01:40:40;;;;;;;7.23;5.70;;;12.20;81.00;;;12.07;79.28;98052.69;5021807;28;20709;-72
2021/03/27 01:43:22;;;;;;;7.87;5.57;;;12.10;81.20;;;12.06;78.40;98055.41;5019584;28;20638;-72
2021/03/27 01:46:29;;;;;;;6.33;5.00;;;12.10;81.70;;;12.05;77.88;98057.19;5022027;28;20681;-72
2021/03/27 01:49:24;;;;;;;6.40;5.40;;;12.10;82.10;;;12.04;78.99;98052.91;5019314;28;20644;-72
2021/03/27 01:52:14;;;;;;;6.03;5.40;;;12.10;82.20;;;11.97;78.84;98054.31;5053278;28;20658;-72
2021/03/27 01:54:52;;;;;;;7.57;5.87;;;12.00;82.80;;;11.97;79.53;98058.72;5025730;28;20641;-72
2021/03/27 01:57:29;;;;;;;5.93;5.30;;;12.00;83.50;;;11.94;79.82;98062.38;5019161;28;20641;-72
2021/03/27 02:00:01;;;;;;;6.40;5.30;;;12.00;83.90;;;11.97;79.15;98064.75;5024053;28;21144;-72
2021/03/27 02:02:44;;;;;;;6.70;5.53;;;12.00;84.50;;;11.89;80.05;98074.09;5021819;28;21206;-72
2021/03/27 02:05:25;;;;;;;7.00;5.60;;;11.90;85.00;;;11.87;81.76;98079.44;5039852;28;20637;-72
2021/03/27 02:07:58;;;;;;;7.33;5.63;;;11.90;86.40;;;11.77;82.03;98088.94;5024541;28;21280;-72
2021/03/27 02:10:41;;;;;;;9.40;5.27;;;11.80;88.10;;;11.68;84.20;98087.91;5020516;28;20648;-72
2021/03/27 02:13:23;;;;;;;6.10;5.00;;;11.70;89.30;;;11.64;84.59;98104.78;5024975;28;20644;-72
2021/03/27 02:16:05;;;;;;;7.43;5.27;;;11.60;90.30;;;11.49;85.87;98104.09;5024280;28;20613;-72
2021/03/27 02:18:41;;;;;;;6.33;5.27;;;11.50;91.10;;;11.34;88.10;98109.53;5018070;28;21219;-72
2021/03/27 02:21:41;;;;;;;6.40;5.20;;;11.30;92.40;;;11.23;88.71;98108.63;5026590;28;21003;-72
2021/03/27 02:24:29;;;;;;;8.57;6.30;;;11.30;93.30;;;11.18;89.48;98108.94;5023778;28;20645;-72
2021/03/27 02:27:07;;;;;;;7.20;5.80;;;11.20;93.50;;;10.96;90.66;98108.78;5022919;28;21033;-72
2021/03/27 02:30:04;;;;;;;7.10;6.00;;;11.00;94.40;;;10.90;91.55;98119.66;5020368;28;21154;-72
2021/03/27 02:32:52;;;;;;;7.23;5.90;;;10.90;95.00;;;10.81;91.30;98124.69;5024681;28;20657;-72
2021/03/27 02:35:42;;;;;;;10.27;6.30;;;10.80;95.40;;;10.80;92.67;98122.16;5020881;28;20657;-72
2021/03/27 02:38:24;;;;;;;7.70;6.00;;;10.80;95.90;;;10.80;91.81;98129.03;5025752;28;20680;-72
2021/03/27 02:41:02;;;;;;;8.43;6.70;;;10.80;96.20;;;10.79;91.91;98126.53;5018019;28;20682;-72
2021/03/27 02:43:39;;;;;;;8.13;6.00;;;10.80;96.10;;;10.86;92.61;98128.63;5022876;28;21023;-72
2021/03/27 02:46:13;;;;;;;7.53;6.20;;;10.90;96.40;;;10.88;92.30;98126.75;5024191;28;20699;-72
2021/03/27 02:48:51;;;;;;;6.50;5.67;;;10.90;96.40;;;10.87;92.76;98130.31;5025324;28;20622;-72
2021/03/27 02:51:26;;;;;;;7.87;6.50;;;10.90;96.30;;;10.89;91.99;98130.19;5034652;28;20726;-72
2021/03/27 02:54:08;;;;;;;7.50;5.73;;;10.90;96.40;;;10.97;92.13;98130.50;5025301;28;20642;-72
2021/03/27 02:56:49;;;;;;;6.83;6.10;;;10.90;96.60;;;10.94;93.35;98128.91;5023008;28;20685;-72
2021/03/27 02:59:47;;;;;;;9.33;6.83;;;10.90;96.70;;;10.91;91.72;98131.72;5023816;28;20629;-72
2021/03/27 03:02:22;;;;;;;8.57;6.80;;;10.90;96.40;;;10.85;92.97;98131.34;5017860;28;20644;-72
2021/03/27 03:05:04;;;;;;;8.30;6.43;;;10.90;96.70;;;10.89;92.92;98138.03;5021688;28;20637;-72
2021/03/27 03:07:37;;;;;;;7.73;6.23;;;10.90;96.70;;;10.95;91.71;98140.22;5022471;28;20637;-72
2021/03/27 03:10:23;;;;;;;8.20;6.20;;;10.90;96.30;;;10.89;92.06;98123.19;5016230;28;20680;-72
2021/03/27 03:13:06;;;;;;;7.63;6.07;;;10.90;96.40;;;10.92;91.96;98106.50;5016067;28;20668;-72
2021/03/27 03:15:43;;;;;;;7.90;6.20;;;10.90;96.40;;;10.97;92.08;98127.88;5019020;28;20638;-72
2021/03/27 03:18:24;;;;;;;7.00;5.70;;;11.00;96.30;;;10.91;91.70;98129.13;5023187;28;21442;-72
2021/03/27 03:20:57;;;;;;;7.10;5.43;;;11.00;96.20;;;10.95;91.16;98132.38;5020099;28;20707;-72
2021/03/27 03:23:32;;;;;;;7.67;5.13;;;11.00;95.80;;;10.98;90.33;98133.00;5036725;28;20648;-72
2021/03/27 03:26:19;;;;;;;5.87;5.23;;;11.00;96.00;;;11.00;89.82;98115.44;5023777;28;20638;-72
2021/03/27 03:28:58;;;;;;;8.70;5.50;;;11.00;95.50;;;11.04;89.66;98129.13;5054960;28;20676;-72
2021/03/27 03:31:44;;;;;;;6.73;4.47;;;11.10;95.20;;;11.03;90.07;98130.06;5021158;28;20991;-72
2021/03/27 03:34:25;;;;;;;5.57;4.30;;;11.10;95.70;;;11.06;89.83;98150.72;5018480;28;20670;-72
2021/03/27 03:37:14;;;;;;;5.37;4.37;;;11.10;95.30;;;11.03;89.97;98150.94;5020441;28;20648;-72
2021/03/27 03:40:14;;;;;;;6.13;4.90;;;11.10;95.10;;;11.03;90.44;98151.78;5020287;28;20691;-72
2021/03/27 03:43:15;;;;;;;6.50;4.83;;;11.10;95.20;;;11.05;89.77;98167.31;5022504;28;20802;-72
2021/03/27 03:46:26;;;;;;;6.37;4.50;;;11.10;95.20;;;10.99;90.37;98176.44;5019969;28;20633;-72
2021/03/27 03:49:27;;;;;;;7.20;4.43;;;11.00;95.20;;;10.91;90.71;98178.69;5004476;28;20660;-72
2021/03/27 03:52:20;;;;;;;6.70;4.87;;;10.90;95.70;;;10.78;91.53;98203.16;5025858;28;20722;-72
2021/03/27 03:55:22;;;;;;;7.10;4.40;;;10.90;96.30;;;10.86;92.78;98212.09;5025517;28;20641;-72
2021/03/27 03:58:23;;;;;;;5.73;5.10;;;10.80;96.90;;;10.95;92.93;98227.16;5021692;28;20654;-72
2021/03/27 04:01:04;;;;;;;6.97;4.77;;;11.00;96.90;;;11.00;92.60;98258.16;5024454;28;20703;-72
2021/03/27 04:03:41;;;;;;;5.13;4.13;;;11.00;97.20;;;11.11;92.39;98255.63;5026844;28;20617;-72
2021/03/27 04:06:19;;;;;;;4.40;3.50;;;11.10;96.80;;;10.98;90.93;98250.41;5025640;28;20636;-72
2021/03/27 04:09:01;;;;;;;6.53;3.60;;;11.10;96.10;;;11.01;90.20;98272.88;5025324;28;20633;-72
2021/03/27 04:12:06;;;;;;;3.40;3.10;;;11.10;95.70;;;10.93;89.39;98275.13;5028108;28;20652;-72
2021/03/27 04:15:21;;;;;;;3.40;2.60;;;11.10;95.10;;;10.74;87.49;98285.13;5024479;28;20678;-72
2021/03/27 04:18:01;;;;;;;3.60;2.60;;;10.90;93.90;;;10.75;86.84;98294.66;5023035;28;20671;-72
2021/03/27 04:20:52;;;;;;;3.17;2.33;;;10.90;93.50;;;10.76;85.94;98293.69;5017712;28;21083;-72
2021/03/27 04:23:34;;;;;;;3.10;2.03;;;10.90;92.90;;;10.67;85.72;98298.69;5027744;28;20691;-72
2021/03/27 04:26:30;;;;;;;2.47;1.90;;;10.80;92.20;;;10.59;85.49;98301.78;5026111;28;20631;-72
2021/03/27 04:29:29;;;;;;;2.47;2.10;;;10.80;92.10;;;10.54;86.10;98329.94;5025484;28;20980;-72
2021/03/27 04:32:26;;;;;;;7.03;1.93;;;10.70;92.20;;;10.46;86.05;98344.41;5033053;28;20672;-72
2021/03/27 04:35:11;;;;;;;2.50;2.10;;;10.60;92.20;;;10.49;85.26;98345.06;5019730;28;20677;-72
2021/03/27 04:37:45;;;;;;;2.77;1.73;;;10.60;92.00;;;10.53;85.00;98343.09;5025739;28;20725;-72
2021/03/27 04:40:23;;;;;;;2.47;1.37;;;10.70;91.70;;;10.54;84.61;98350.81;5028364;28;20679;-72
2021/03/27 04:42:56;;;;;;;2.40;1.70;;;10.70;91.60;;;10.51;83.87;98350.19;5022636;28;20990;-72
2021/03/27 04:45:31;;;;;;;3.50;1.43;;;10.70;91.60;;;10.41;83.94;98359.50;5023224;28;20641;-72
2021/03/27 04:48:19;;;;;;;3.13;1.63;;;10.60;91.10;;;10.40;83.52;98374.31;5023969;28;20694;-72
2021/03/27 04:51:35;;;;;;;1.73;1.30;;;10.60;90.90;;;10.24;82.79;98382.34;5024331;28;20649;-72
2021/03/27 04:54:25;;;;;;;2.30;1.20;;;10.50;90.30;;;10.23;82.36;98394.53;5023434;28;20644;-72
2021/03/27 04:57:05;;;;;;;1.70;1.40;;;10.40;90.10;;;10.23;82.72;98394.53;5021007;28;20634;-72
2021/03/27 04:59:57;;;;;;;1.30;1.10;;;10.40;90.20;;;10.23;82.05;98404.97;5022761;28;20621;-72
2021/03/27 05:02:37;;;;;;;2.47;1.30;;;10.40;89.10;;;10.20;80.87;98417.38;5058804;28;20642;-72
2021/03/27 05:05:13;;;;;;;1.13;1.00;;;10.40;88.70;;;10.20;81.14;98433.81;5024247;28;20633;-72
2021/03/27 05:07:52;;;;;;;1.50;1.30;;;10.40;88.10;;;10.11;81.59;98444.81;5021450;28;20636;-72
2021/03/27 05:10:29;;;;;;;1.30;1.20;;;10.30;87.30;;;10.02;80.09;98445.38;5022856;28;20658;-72
2021/03/27 05:13:11;;;;;;;1.20;1.00;;;10.20;86.60;;;9.89;78.46;98454.84;5021270;28;20654;-72
2021/03/27 05:15:50;;;;;;;1.30;1.00;;;10.10;84.00;;;9.75;79.69;98460.94;5022126;28;21255;-72
2021/03/27 05:18:39;;;;;;;1.47;1.17;;;10.00;85.10;;;9.71;79.55;98478.53;5057703;28;20738;-72
2021/03/27 05:21:45;;;;;;;2.60;1.03;;;9.90;86.40;;;9.62;79.41;98493.84;5019338;28;20695;-72
2021/03/27 05:24:26;;;;;;;1.33;1.23;;;9.90;86.50;;;9.58;80.74;98503.59;5056682;28;20722;-72
2021/03/27 05:27:17;;;;;;;1.40;1.00;;;9.80;87.30;;;9.45;80.26;98505.22;5025402;28;20971;-72
2021/03/27 05:30:01;;;;;;;1.37;1.00;;;9.70;86.40;;;9.47;79.19;98529.41;5020525;28;20677;-72
2021/03/27 05:32:47;;;;;;;1.87;1.20;;;9.70;86.50;;;9.45;80.48;98546.03;5023541;28;20689;-72
2021/03/27 05:35:46;;;;;;;1.00;0.90;;;9.70;87.00;;;9.41;80.29;98539.31;5025000;28;20647;-72
2021/03/27 05:38:24;;;;;;;0.90;0.80;;;9.60;87.40;;;9.37;80.17;98531.75;5057099;28;20631;-72
2021/03/27 05:41:36;;;;;;;1.20;1.00;;;9.60;87.50;;;9.39;79.87;98547.22;5024719;28;20633;-72
2021/03/27 05:44:53;;;;;;;0.97;0.80;;;9.60;86.80;;;9.31;80.41;98543.38;5026063;28;20633;-72
2021/03/27 05:47:59;;;;;;;0.90;0.80;;;9.50;87.10;;;9.27;80.39;98554.88;5014454;28;21179;-72
2021/03/27 05:51:16;;;;;;;2.30;1.30;;;9.50;87.40;;;9.31;80.41;98579.81;5025738;28;20647;-72
2021/03/27 05:54:12;;;;;;;1.10;1.00;;;9.50;87.60;;;9.22;80.67;98595.94;4980341;28;20688;-72
2021/03/27 05:57:26;;;;;;;1.00;0.83;;;9.40;87.30;;;9.11;80.25;98606.09;5027990;28;20641;-72
2021/03/27 06:00:44;;;;;;;1.80;1.00;;;9.40;87.30;;;9.03;80.61;98610.84;5023669;28;21035;-74
2021/03/27 06:03:50;;;;;;;1.30;1.10;;;9.20;87.10;;;9.06;80.78;98615.06;5005517;28;20645;-74
2021/03/27 06:06:49;;;;;;;1.30;0.70;;;9.30;87.60;;;9.10;80.98;98613.97;5023053;28;21476;-74
2021/03/27 06:09:59;;;;;;;2.27;1.50;;;9.30;87.90;;;9.06;79.98;98618.50;5001346;28;20671;-74
2021/03/27 06:12:43;;;;;;;0.93;0.83;;;9.20;86.70;;;9.09;79.43;98633.94;5019266;28;20696;-71
2021/03/27 06:16:13;;;;;;;1.30;1.00;;;9.30;86.00;;;9.13;79.39;98642.44;5003523;28;20700;-74
2021/03/27 06:19:48;;;;;;;0.90;0.80;;;9.30;85.10;;;9.14;79.48;98652.75;5002460;28;21056;-74
2021/03/27 06:22:42;;;;;;;1.10;1.00;;;9.40;85.30;;;9.11;79.61;98657.28;4957494;28;20698;-73
2021/03/27 06:26:03;;;;;;;1.00;0.87;;;9.40;85.10;;;9.16;78.82;98663.09;4960219;28;20647;-74
2021/03/27 06:29:14;;;;;;;1.00;0.70;;;9.40;86.30;;;9.29;79.32;98664.97;4980835;28;20649;-71
2021/03/27 06:32:15;;;;;;;0.80;0.70;;;9.40;85.70;;;9.60;76.17;98665.78;5022783;28;20661;-70
2021/03/27 06:34:54;;;;;;;3.00;1.20;;;9.70;83.60;;;9.56;76.53;98679.91;5059115;28;20672;-68
2021/03/27 06:37:55;;;;;;;0.90;0.80;;;9.70;82.40;;;9.49;75.95;98688.13;5024661;28;20633;-67
2021/03/27 06:40:40;;;;;;;0.90;0.80;;;9.70;81.50;;;9.55;76.31;98683.44;5038939;28;20667;-70
2021/03/27 06:43:54;;;;;;;1.07;0.87;;;9.70;82.40;;;9.49;75.95;98698.53;5021639;28;20628;-73
2021/03/27 06:46:59;;;;;;;1.53;0.80;;;9.70;81.20;;;9.48;75.44;98707.28;5034000;28;20741;-73
2021/03/27 06:50:04;;;;;;;1.23;0.87;;;9.70;80.70;;;9.44;75.02;98700.53;5024889;28;20750;-73
2021/03/27 06:53:07;;;;;;;1.63;0.83;;;9.70;79.80;;;9.41;74.73;98703.31;5018005;28;20708;-73
2021/03/27 06:56:09;;;;;;;2.57;0.93;;;9.60;79.00;;;9.38;75.75;98706.94;5017226;28;21246;-74
2021/03/27 06:59:16;;;;;;;1.13;1.03;;;9.60;79.40;;;9.51;74.28;98710.53;5014730;28;21208;-74
2021/03/27 07:02:44;;;;;;;2.83;1.00;;;9.60;79.30;;;9.63;73.91;98714.25;5022005;28;21191;-74
2021/03/27 07:06:08;;;;;;;2.17;1.10;;;9.80;78.70;;;9.89;74.36;98723.16;5058315;28;20625;-73
2021/03/27 07:09:04;;;;;;;3.37;1.03;;;9.90;80.10;;;9.94;74.25;98726.38;4988048;28;20706;-73
2021/03/27 07:11:46;;;;;;;2.17;0.93;;;10.00;77.40;;;9.88;73.98;98724.06;5021453;28;20641;-74
2021/03/27 07:15:04;;;;;;;1.17;0.93;;;10.00;77.20;;;9.73;73.49;98733.69;5019725;28;20973;-73
2021/03/27 07:17:46;;;;;;;4.30;2.37;;;10.00;76.60;;;9.47;74.26;98736.81;5026707;28;20656;-73
2021/03/27 07:21:05;;;;;;;2.50;1.20;;;9.60;76.90;;;9.32;74.84;98742.00;5022194;28;20639;-74
2021/03/27 07:24:27;;;;;;;3.53;1.10;;;9.60;78.30;;;9.19;75.05;98757.44;5053352;28;22014;-74
2021/03/27 07:27:50;;;;;;;8.17;1.30;;;9.40;79.20;;;9.09;74.23;98776.19;5017063;28;20711;-74
2021/03/27 07:30:33;;;;;;;2.00;0.80;;;9.30;78.60;;;8.99;71.96;98773.25;5016984;28;20980;-74
2021/03/27 07:33:55;;;;;;;1.20;0.80;;;9.30;75.50;;;8.92;71.13;98765.00;5025997;28;20672;-74
2021/03/27 07:37:01;;;;;;;1.60;1.00;;;9.20;73.50;;;8.98;72.18;98781.94;5009478;28;21745;-73
2021/03/27 07:39:46;;;;;;;1.80;0.90;;;9.20;74.40;;;9.14;70.96;98788.06;4996968;28;20655;-73
2021/03/27 07:42:53;;;;;;;1.57;0.80;;;9.30;74.00;;;9.37;72.03;98798.13;5029279;28;20661;-73
2021/03/27 07:46:15;;;;;;;1.93;0.97;;;9.40;75.40;;;10.40;69.91;98793.22;5030003;28;20632;-73
2021/03/27 07:49:20;;;;;;;2.73;1.00;;;10.10;75.00;;;11.53;70.12;98807.31;5013337;28;20640;-73
2021/03/27 07:52:10;;;;;;;2.90;1.10;;;11.00;76.10;;;11.96;65.04;98802.00;5022451;28;20649;-73
2021/03/27 07:55:41;;;;;;;3.80;1.23;;;11.70;70.80;;;12.25;64.35;98810.53;5030612;28;20637;-73
2021/03/27 07:58:37;;;;;;;2.40;0.90;;;12.10;68.60;;;12.43;64.29;98805.88;5015705;28;20675;-72
2021/03/27 08:01:55;;;;;;;2.00;1.07;;;12.40;65.40;;;12.86;63.61;98805.66;5032200;28;20633;-75
2021/03/27 08:05:29;;;;;;;2.60;1.00;;;12.70;64.60;;;12.93;63.00;98806.91;5028277;28;21017;-72
2021/03/27 08:08:52;;;;;;;1.30;1.00;;;12.90;62.10;;;13.27;61.02;98799.31;5017121;28;21204;-72
2021/03/27 08:11:35;;;;;;;1.97;1.20;;;13.20;62.90;;;13.41;60.97;98800.06;5031501;28;20633;-71
2021/03/27 08:14:33;;;;;;;1.47;0.87;;;13.20;61.30;;;13.78;58.80;98807.06;5030343;28;21018;-73
2021/03/27 08:17:29;;;;;;;2.37;1.10;;;13.50;59.30;;;14.16;57.64;98812.16;5028260;28;20634;-73
2021/03/27 08:20:47;;;;;;;4.80;1.10;;;13.90;58.10;;;14.03;56.41;98810.47;5028498;28;21378;-72
2021/03/27 08:23:46;;;;;;;1.87;1.20;;;14.00;56.40;;;14.35;57.52;98817.75;5031181;28;20625;-71
2021/03/27 08:26:46;;;;;;;1.63;1.03;;;14.20;56.80;;;14.37;54.55;98821.13;5031641;28;20674;-71
2021/03/27 08:30:05;;;;;;;3.27;0.70;;;14.40;54.00;;;14.09;55.30;98820.56;5028935;28;20634;-71
2021/03/27 08:33:12;;;;;;;1.80;0.83;;;14.20;54.00;;;14.20;56.09;98823.28;5022980;28;20661;-71
2021/03/27 08:36:37;;;;;;;2.07;0.90;;;14.20;53.60;;;14.37;54.24;98817.66;5025909;28;21223;-71
2021/03/27 08:39:42;;;;;;;1.10;0.70;;;14.30;52.00;;;14.14;54.97;98827.16;5010496;28;20757;-71
2021/03/27 08:42:52;;;;;;;2.37;1.07;;;14.20;52.60;;;14.08;53.25;98832.00;5028229;28;20716;-71
2021/03/27 08:45:44;;;;;;;3.17;1.00;;;14.20;52.30;;;13.99;54.13;98826.53;5028500;28;20637;-71
2021/03/27 08:48:29;;;;;;;1.53;0.73;;;14.10;51.50;;;13.88;54.33;98831.72;5026833;28;20642;-71
2021/03/27 08:51:25;;;;;;;1.10;0.70;;;14.00;50.90;;;13.64;53.36;98816.84;5038907;28;20641;-71
2021/03/27 08:54:54;;;;;;;1.57;0.83;;;13.90;49.30;;;12.76;55.06;98821.09;5028701;28;20717;-71
2021/03/27 08:58:11;;;;;;;1.60;0.80;;;13.20;49.80;;;12.51;53.08;98830.63;5028826;28;20643;-71
2021/03/27 09:01:13;;;;;;;3.27;1.00;;;12.80;50.20;;;12.92;53.60;98834.88;5004324;28;20641;-71
2021/03/27 09:04:16;;;;;;;1.83;0.70;;;13.00;51.60;;;13.32;55.53;98824.28;5025927;28;20646;-71
2021/03/27 09:07:21;;;;;;;2.30;0.80;;;13.30;52.80;;;13.38;54.84;98834.34;5024029;28;20613;-71
2021/03/27 09:10:14;;;;;;;1.10;0.77;;;13.30;52.50;;;13.31;56.71;98829.59;5027500;28;21163;-71
2021/03/27 09:13:06;;;;;;;1.57;0.80;;;13.40;52.70;;;13.19;54.05;98841.75;5028066;28;20762;-71
2021/03/27 09:16:37;;;;;;;3.00;0.90;;;13.30;51.80;;;12.90;56.01;98831.53;5024772;28;20635;-71
2021/03/27 09:19:30;;;;;;;3.53;0.80;;;13.00;52.80;;;12.76;57.16;98836.78;5028943;28;20645;-71
2021/03/27 09:22:58;;;;;;;2.03;0.80;;;12.80;54.20;;;13.19;57.71;98840.91;5031420;28;20634;-71
2021/03/27 09:26:16;;;;;;;1.80;1.00;;;13.00;54.30;;;13.47;57.10;98828.47;5043706;28;20771;-71
2021/03/27 09:29:22;;;;;;;1.97;1.00;;;13.40;55.90;;;13.45;57.93;98846.06;5042132;28;20633;-71
2021/03/27 09:32:14;;;;;;;3.50;1.03;;;13.30;54.10;;;13.21;56.23;98852.97;4992774;28;20632;-71
2021/03/27 09:35:24;;;;;;;1.00;0.60;;;13.20;53.70;;;13.45;54.58;98847.84;5021249;28;20664;-71
2021/03/27 09:38:27;;;;;;;1.87;0.80;;;13.40;52.40;;;13.03;53.20;98871.66;5005476;28;21033;-71
2021/03/27 09:41:30;;;;;;;1.77;0.80;;;13.20;49.90;;;12.82;54.31;98860.00;4989028;28;20625;-71
2021/03/27 09:44:36;;;;;;;2.30;0.67;;;13.00;49.50;;;13.10;53.84;98880.81;5053930;28;21028;-71
2021/03/27 09:47:22;;;;;;;2.23;0.80;;;13.00;51.00;;;13.38;53.79;98881.50;5029905;28;20724;-71
2021/03/27 09:50:00;;;;;;;1.07;0.70;;;13.30;51.10;;;13.74;54.78;98881.63;5027919;28;20716;-71
2021/03/27 09:52:44;;;;;;;1.07;0.73;;;13.60;52.20;;;13.99;53.69;98892.13;5027336;28;20649;-71
2021/03/27 09:55:37;;;;;;;1.47;0.80;;;13.80;51.10;;;14.10;52.19;98884.38;5027883;28;20684;-70
2021/03/27 09:58:17;;;;;;;1.83;0.60;;;14.00;48.70;;;14.20;51.91;98884.44;5029446;28;20630;-71
2021/03/27 10:01:22;;;;;;;1.33;0.80;;;14.10;48.90;;;14.20;51.01;98881.81;5029213;28;21013;-72
2021/03/27 10:04:07;;;;;;;1.53;0.70;;;14.20;49.30;;;14.27;51.89;98892.75;5025685;28;20696;-72
2021/03/27 10:07:14;;;;;;;2.30;0.70;;;14.30;48.20;;;14.48;51.85;98893.81;5028658;28;20639;-72
2021/03/27 10:10:17;;;;;;;1.33;0.70;;;14.40;48.50;;;14.13;50.55;98894.66;5027808;28;20999;-72
2021/03/27 10:12:58;;;;;;;2.40;0.90;;;14.30;46.40;;;14.24;52.50;98890.34;5026658;28;20661;-73
2021/03/27 10:15:40;;;;;;;6.73;1.00;;;14.30;48.40;;;13.97;50.15;98889.59;5027559;28;20646;-72
2021/03/27 10:18:19;;;;;;;1.53;0.60;;;14.00;46.50;;;13.99;52.07;98903.44;5029107;28;20631;-72
2021/03/27 10:20:52;;;;;;;1.30;0.80;;;14.10;47.30;;;13.95;51.63;98907.22;5026112;28;21196;-72
2021/03/27 10:23:54;;;;;;;1.70;0.70;;;14.10;46.60;;;14.03;51.21;98898.84;5041900;28;21176;-72
2021/03/27 10:26:31;;;;;;;1.67;1.00;;;14.20;47.00;;;14.12;53.13;98898.19;5025004;28;20653;-72
2021/03/27 10:29:36;;;;;;;1.30;0.90;;;14.20;48.30;;;13.99;51.70;98902.59;5021156;28;20650;-72
2021/03/27 10:32:47;;;;;;;1.10;0.83;;;14.10;46.20;;;14.10;51.61;98895.69;5028254;28;20645;-72
2021/03/27 10:35:43;;;;;;;3.90;0.67;;;14.10;48.00;;;14.31;51.90;98892.44;5029019;28;20716;-72
2021/03/27 10:38:32;;;;;;;3.90;0.90;;;14.30;47.40;;;14.39;51.79;98895.34;5024747;28;20663;-72
2021/03/27 10:41:05;;;;;;;1.30;0.67;;;14.40;46.80;;;14.59;51.47;98899.19;5025408;28;20654;-70
2021/03/27 10:43:45;;;;;;;1.47;0.83;;;14.60;48.30;;;14.08;49.55;98902.84;5026512;28;20627;-74
2021/03/27 10:46:25;;;;;;;2.30;0.70;;;14.20;45.40;;;13.79;49.92;98905.75;5021986;28;20993;-73
2021/03/27 10:49:14;;;;;;;1.40;0.70;;;14.00;44.70;;;13.72;49.33;98907.09;5025464;28;20652;-73
2021/03/27 10:52:50;;;;;;;1.53;0.93;;;14.00;45.00;;;13.83;49.89;98905.44;5043395;28;20642;-73
2021/03/27 10:55:49;;;;;;;1.70;0.70;;;13.90;46.50;;;13.52;48.83;98912.84;5057823;28;20646;-73
2021/03/27 10:58:49;;;;;;;2.50;0.80;;;13.70;44.30;;;13.48;50.68;98918.41;5023970;28;20643;-74
2021/03/27 11:01:52;;;;;;;2.07;0.90;;;13.60;45.80;;;13.59;52.05;98923.75;5027478;28;20685;-74
2021/03/27 11:05:41;;;;;;;2.10;0.80;;;13.70;46.40;;;13.66;48.90;98928.50;5024546;28;20630;-74
2021/03/27 11:09:13;;;;;;;1.30;0.80;;;13.70;45.50;;;13.61;51.29;98927.13;4965013;28;20667;-74
2021/03/27 11:12:19;;;;;;;1.13;0.50;;;13.70;44.90;;;13.70;51.22;98906.38;5016406;28;20777;-74
2021/03/27 11:15:18;;;;;;;1.60;0.67;;;13.70;46.50;;;13.52;48.89;98909.41;5040578;28;20642;-74
2021/03/27 11:18:43;;;;;;;1.40;0.60;;;13.70;43.90;;;13.50;49.88;98919.13;5026986;28;20639;-74
2021/03/27 11:21:46;;;;;;;1.47;0.67;;;13.60;44.90;;;13.64;50.81;98927.75;5011622;28;21053;-75
2021/03/27 11:24:30;;;;;;;2.00;0.70;;;13.70;46.00;;;13.37;50.01;98934.00;5024055;28;20635;-75
2021/03/27 11:27:32;;;;;;;1.30;0.67;;;13.50;45.20;;;13.46;48.79;98934.22;5024926;28;20638;-75
2021/03/27 11:30:06;;;;;;;2.43;1.00;;;13.60;44.60;;;13.41;51.27;98933.72;5025820;28;20657;-75
2021/03/27 11:32:44;;;;;;;2.00;0.77;;;13.40;45.90;;;13.49;50.04;98952.38;5023806;28;20663;-75
2021/03/27 11:35:21;;;;;;;2.20;0.80;;;13.50;45.50;;;13.47;49.52;98950.78;5024962;28;20670;-75
2021/03/27 11:38:19;;;;;;;2.20;0.90;;;13.50;45.40;;;13.64;51.00;98961.84;5022475;28;21271;-75
2021/03/27 11:41:00;;;;;;;1.80;0.80;;;13.60;46.50;;;13.69;50.36;98951.88;5025213;28;20653;-69
2021/03/27 11:43:52;;;;;;;3.80;0.93;;;13.70;45.90;;;13.45;50.48;98953.50;5024515;28;20630;-74
2021/03/27 11:46:26;;;;;;;2.30;0.90;;;13.30;45.40;;;13.39;49.77;98947.84;5035389;28;21040;-74
2021/03/27 11:49:05;;;;;;;3.77;0.87;;;13.40;45.10;;;13.47;50.38;98956.88;5043063;28;21033;-75
2021/03/27 11:51:42;;;;;;;2.07;0.80;;;13.50;44.90;;;13.49;50.87;98964.66;5053544;28;20641;-75
2021/03/27 11:54:47;;;;;;;2.60;0.80;;;13.50;46.60;;;13.54;51.39;98960.75;5028340;28;20848;-75
2021/03/27 11:57:29;;;;;;;4.00;1.50;;;13.50;47.40;;;13.68;51.25;98956.28;5024115;28;20677;-75
2021/03/27 12:03:31;;;;;;;2.30;1.00;;;13.70;46.80;;;13.22;51.47;98948.09;5029889;28;20976;-76
2021/03/27 12:06:16;;;;;;;3.33;1.17;;;13.20;46.10;;;13.46;50.17;98951.75;5044807;28;21186;-76
2021/03/27 12:08:56;;;;;;;4.43;1.00;;;13.40;46.40;;;13.64;50.91;98959.22;5029510;28;20704;-76